Time;durP1;ratioP1;P1;durP2;ratioP2;P2;SDS_P1;SDS_P2;PMS_P1;PMS_P2;Temp;Humidity;BMP_temperature;BMP_pressure;BME280_temperature;BME280_humidity;BME280_pressure;Samples;Min_cycle;Max_cycle;Signal;HPM_P1;HPM_P2
2023/08/22 00:00:43;;;;;;;6.87;3.53;;;;;;;24.40;97.06;100129.59;5005466;28;20270;-55
2023/08/22 00:03:14;;;;;;;8.33;3.63;;;;;;;24.59;96.21;100115.69;4995643;28;20440;-54
2023/08/22 00:05:45;;;;;;;7.30;3.87;;;;;;;24.79;96.06;100119.50;5005584;28;20148;-56
2023/08/22 00:08:16;;;;;;;5.20;3.20;;;;;;;25.00;95.32;100123.16;4995724;28;20468;-55
2023/08/22 00:10:47;;;;;;;7.90;3.50;;;;;;;25.07;93.45;100113.69;5006655;28;20147;-55
2023/08/22 00:13:19;;;;;;;5.93;3.77;;;;;;;25.09;91.99;100116.25;5015740;28;20128;-55
2023/08/22 00:15:50;;;;;;;7.60;3.83;;;;;;;25.09;92.13;100126.97;5025484;28;20051;-57
2023/08/22 00:18:21;;;;;;;7.63;4.00;;;;;;;25.11;92.68;100124.97;5014858;28;20198;-55
2023/08/22 00:20:52;;;;;;;7.67;3.97;;;;;;;25.01;91.89;100124.00;5025268;28;20099;-55
2023/08/22 00:23:23;;;;;;;11.37;3.87;;;;;;;24.88;92.09;100118.78;5015338;28;20040;-55
2023/08/22 00:25:54;;;;;;;11.53;4.23;;;;;;;24.75;92.76;100110.88;5014785;28;20091;-55
2023/08/22 00:28:25;;;;;;;6.10;3.80;;;;;;;24.67;93.76;100110.63;5000962;28;20460;-55
2023/08/22 00:30:55;;;;;;;7.10;3.47;;;;;;;24.58;94.60;100111.34;5016502;28;20342;-55
2023/08/22 00:33:26;;;;;;;9.50;4.00;;;;;;;24.63;95.15;100114.50;5025200;28;20044;-56
2023/08/22 00:35:56;;;;;;;6.73;3.53;;;;;;;24.60;95.14;100125.44;5015057;28;20140;-56
2023/08/22 00:38:28;;;;;;;6.53;4.03;;;;;;;24.69;95.82;100119.41;4995233;28;20145;-56
2023/08/22 00:40:59;;;;;;;9.53;4.53;;;;;;;24.74;96.14;100106.53;4976760;28;20140;-56
2023/08/22 00:43:31;;;;;;;14.63;4.33;;;;;;;24.82;96.08;100103.25;4986385;28;20574;-56
2023/08/22 00:46:02;;;;;;;13.97;5.03;;;;;;;24.82;96.62;100109.44;4985556;28;20053;-56
2023/08/22 00:48:33;;;;;;;7.30;4.03;;;;;;;24.78;97.78;100112.47;5005377;28;20369;-56
2023/08/22 00:51:04;;;;;;;11.77;4.70;;;;;;;24.79;98.14;100115.03;4996067;28;20064;-56
2023/08/22 00:53:35;;;;;;;13.00;4.60;;;;;;;24.82;98.72;100109.44;5005890;28;20099;-56
2023/08/22 00:56:06;;;;;;;11.90;4.10;;;;;;;24.68;98.56;100085.63;4995869;28;20140;-56
2023/08/22 00:58:39;;;;;;;10.27;4.37;;;;;;;24.39;98.64;100037.97;5005838;28;20460;-56
2023/08/22 01:01:10;;;;;;;11.83;4.10;;;;;;;24.88;98.84;100092.91;4995360;28;20073;-56
2023/08/22 01:03:40;;;;;;;6.47;3.37;;;;;;;24.97;98.21;100086.84;5005635;28;20100;-56
2023/08/22 01:06:18;;;;;;;10.33;3.67;;;;;;;24.95;97.07;100078.09;4995583;28;20103;-56
2023/08/22 01:08:54;;;;;;;12.70;4.60;;;;;;;24.94;97.44;100083.56;5005537;28;20049;-56
2023/08/22 01:11:31;;;;;;;8.07;4.00;;;;;;;24.95;97.21;100088.78;4999451;28;20119;-56
2023/08/22 01:14:08;;;;;;;9.13;3.93;;;;;;;24.94;98.27;100076.41;5025817;28;20068;-55
2023/08/22 01:16:40;;;;;;;11.37;5.93;;;;;;;25.12;98.18;100083.94;5029220;28;20106;-56
2023/08/22 01:19:14;;;;;;;8.87;3.87;;;;;;;25.15;97.74;100083.69;5019337;28;20040;-56
2023/08/22 01:21:52;;;;;;;15.57;4.60;;;;;;;25.28;97.48;100089.75;5028938;28;20442;-56
2023/08/22 01:24:23;;;;;;;14.10;3.83;;;;;;;25.15;96.57;100047.09;5001575;28;20045;-57
2023/08/22 01:26:54;;;;;;;11.00;4.07;;;;;;;25.60;95.98;100073.75;5015487;28;20056;-57
2023/08/22 01:29:33;;;;;;;6.23;4.13;;;;;;;25.73;93.50;100062.88;5016657;28;20160;-57
2023/08/22 01:32:11;;;;;;;8.57;3.60;;;;;;;25.93;92.79;100073.81;5035395;28;20456;-56
2023/08/22 01:34:43;;;;;;;11.55;3.97;;;;;;;26.00;90.98;100069.63;5033348;28;20069;-57
2023/08/22 01:37:16;;;;;;;11.53;4.20;;;;;;;26.02;90.82;100062.34;5023684;28;20898;-56
2023/08/22 01:39:48;;;;;;;10.10;4.00;;;;;;;26.04;91.06;100055.03;5016625;28;20041;-56
2023/08/22 01:42:18;;;;;;;9.93;4.10;;;;;;;25.98;90.25;100045.66;5006063;28;20041;-56
2023/08/22 01:44:49;;;;;;;7.97;3.70;;;;;;;25.97;89.85;100053.84;5020635;28;20050;-56
2023/08/22 01:47:19;;;;;;;8.87;4.10;;;;;;;26.08;90.28;100051.09;5017025;28;20471;-57
2023/08/22 01:49:50;;;;;;;5.27;3.60;;;;;;;26.24;89.63;100051.50;5028911;28;20048;-58
2023/08/22 01:52:22;;;;;;;6.27;3.50;;;;;;;26.11;89.05;100013.38;4999510;28;20053;-57
2023/08/22 01:54:53;;;;;;;6.10;3.50;;;;;;;26.45;88.86;100047.94;5008385;28;20045;-55
2023/08/22 01:57:24;;;;;;;4.93;3.30;;;;;;;26.75;89.21;100043.63;4997829;28;20209;-56
2023/08/22 01:59:54;;;;;;;5.40;3.77;;;;;;;26.64;87.27;100010.56;5004616;28;20053;-56
2023/08/22 02:02:26;;;;;;;6.50;3.70;;;;;;;26.77;86.69;100042.50;5023815;28;20057;-55
2023/08/22 02:04:57;;;;;;;6.23;4.23;;;;;;;26.79;87.87;100028.97;5004717;28;20049;-55
2023/08/22 02:07:29;;;;;;;6.97;4.10;;;;;;;26.95;87.48;100029.31;5008327;28;20076;-55
2023/08/22 02:10:00;;;;;;;5.70;3.90;;;;;;;27.21;86.17;100028.81;4997976;28;20473;-55
2023/08/22 02:12:30;;;;;;;9.97;3.80;;;;;;;27.38;84.80;100024.63;5007805;28;20041;-55
2023/08/22 02:15:01;;;;;;;4.43;3.33;;;;;;;27.49;83.69;100028.03;5005139;28;20084;-55
2023/08/22 02:17:32;;;;;;;8.13;3.80;;;;;;;27.46;82.89;100033.69;5027244;28;20037;-55
2023/08/22 02:20:04;;;;;;;7.43;3.87;;;;;;;27.28;82.49;100035.34;5017502;28;20048;-56
2023/08/22 02:22:40;;;;;;;7.43;4.50;;;;;;;27.10;83.18;100033.28;5027937;28;20139;-55
2023/08/22 02:25:11;;;;;;;11.50;4.23;;;;;;;26.95;84.68;100023.94;5011789;28;20140;-55
2023/08/22 02:27:42;;;;;;;8.20;4.50;;;;;;;26.95;84.92;100029.31;5011434;28;20460;-55
2023/08/22 02:30:13;;;;;;;9.20;4.43;;;;;;;26.89;84.42;100030.69;5008150;28;20045;-55
2023/08/22 02:32:44;;;;;;;8.13;4.30;;;;;;;26.96;84.82;100032.81;5024800;28;20033;-55
2023/08/22 02:35:14;;;;;;;8.20;4.47;;;;;;;26.90;84.42;100035.06;5017238;28;20491;-55
2023/08/22 02:37:46;;;;;;;7.40;4.47;;;;;;;26.78;85.01;100032.63;5027395;28;20041;-55
2023/08/22 02:40:17;;;;;;;6.40;3.93;;;;;;;26.61;85.44;100026.06;5017107;28;20069;-55
2023/08/22 02:42:48;;;;;;;6.63;3.97;;;;;;;26.36;85.30;100032.66;5026776;28;20048;-56
2023/08/22 02:45:18;;;;;;;10.27;4.60;;;;;;;26.16;87.43;100032.56;5017054;28;20049;-56
2023/08/22 02:47:49;;;;;;;6.40;4.13;;;;;;;26.06;88.61;100031.66;5023401;28;20487;-55
2023/08/22 02:50:23;;;;;;;6.40;4.03;;;;;;;25.98;89.39;100039.47;5005925;28;20485;-55
2023/08/22 02:52:55;;;;;;;7.20;4.37;;;;;;;25.89;89.98;100034.91;5007724;28;20041;-55
2023/08/22 02:55:25;;;;;;;7.47;4.53;;;;;;;25.71;90.62;100032.75;4984934;28;20627;-55
2023/08/22 02:57:56;;;;;;;6.30;4.73;;;;;;;25.54;92.07;100035.97;4998136;28;20141;-56
2023/08/22 03:00:27;;;;;;;7.83;4.83;;;;;;;25.43;93.06;100036.00;5013349;28;20098;-55
2023/08/22 03:02:58;;;;;;;6.13;4.83;;;;;;;25.40;94.20;100035.28;5016014;28;20710;-56
2023/08/22 03:05:29;;;;;;;10.57;5.17;;;;;;;25.40;94.89;100035.28;5000539;28;20349;-56
2023/08/22 03:08:01;;;;;;;9.80;5.53;;;;;;;25.42;94.82;100028.97;4997409;28;20400;-57
2023/08/22 03:10:31;;;;;;;14.80;5.70;;;;;;;25.50;95.31;100018.47;5007544;28;20554;-56
2023/08/22 03:13:02;;;;;;;9.70;5.23;;;;;;;25.68;95.36;99990.19;4998634;28;20582;-57
2023/08/22 03:15:33;;;;;;;9.63;5.03;;;;;;;26.18;94.56;100003.81;5017717;28;20163;-56
2023/08/22 03:18:06;;;;;;;8.07;4.73;;;;;;;26.47;93.05;99998.59;5012779;28;20110;-57
2023/08/22 03:20:37;;;;;;;9.80;4.90;;;;;;;26.72;91.72;99998.34;5017454;28;20487;-57
2023/08/22 03:23:09;;;;;;;6.80;4.60;;;;;;;26.94;89.44;99994.59;5012439;28;20320;-58
2023/08/22 03:26:02;;;;;;;9.23;4.33;;;;;;;27.16;88.14;99988.13;5021549;28;20045;-57
2023/08/22 03:28:34;;;;;;;11.00;4.47;;;;;;;27.29;86.91;99984.25;5010606;28;20049;-58
2023/08/22 03:31:04;;;;;;;7.17;4.47;;;;;;;27.40;87.01;99983.25;4993945;28;20137;-58
2023/08/22 03:33:35;;;;;;;6.20;4.53;;;;;;;27.71;86.05;99985.81;5015977;28;20383;-58
2023/08/22 03:36:06;;;;;;;13.57;4.50;;;;;;;27.60;84.60;99986.78;5011908;28;20068;-58
2023/08/22 03:38:39;;;;;;;6.70;4.40;;;;;;;27.50;84.78;99975.22;5022144;28;20148;-58
2023/08/22 03:41:10;;;;;;;6.90;4.50;;;;;;;27.36;85.43;99984.53;4993698;28;20185;-57
2023/08/22 03:43:40;;;;;;;6.80;4.33;;;;;;;26.97;86.01;99973.72;5002185;28;20053;-57
2023/08/22 03:46:11;;;;;;;9.60;4.93;;;;;;;26.71;86.78;99983.22;4994819;28;20069;-57
2023/08/22 03:48:53;;;;;;;7.57;4.77;;;;;;;26.50;88.66;99978.75;5022003;28;20539;-58
2023/08/22 03:51:23;;;;;;;13.63;5.43;;;;;;;26.41;89.29;99971.50;5011748;28;20060;-58
2023/08/22 03:53:56;;;;;;;10.20;5.17;;;;;;;26.29;89.48;99967.25;5018919;28;20225;-62
2023/08/22 03:56:26;;;;;;;9.43;5.30;;;;;;;26.23;90.49;99977.50;5022228;28;20037;-59
2023/08/22 03:58:58;;;;;;;9.90;5.77;;;;;;;26.15;90.54;99969.25;5012722;28;20051;-60
2023/08/22 04:01:28;;;;;;;9.33;6.07;;;;;;;26.04;91.40;99972.03;5021776;28;20049;-57
2023/08/22 04:03:59;;;;;;;7.90;5.27;;;;;;;26.04;92.09;99974.72;5011301;28;20535;-60
2023/08/22 04:06:30;;;;;;;14.43;5.37;;;;;;;25.92;91.53;99959.69;5021891;28;20072;-60
2023/08/22 04:09:03;;;;;;;9.67;5.60;;;;;;;25.86;92.30;99970.91;5011659;28;20045;-56
2023/08/22 04:11:33;;;;;;;11.00;5.70;;;;;;;25.72;93.11;99980.09;5021338;28;20514;-59
2023/08/22 04:14:04;;;;;;;16.50;6.50;;;;;;;25.61;93.87;99983.66;5011680;28;20390;-58
2023/08/22 04:16:34;;;;;;;8.40;5.77;;;;;;;25.39;94.53;99969.41;5021599;28;20059;-57
2023/08/22 04:19:05;;;;;;;12.03;5.93;;;;;;;25.37;95.28;99960.66;5010608;28;20068;-57
2023/08/22 04:21:35;;;;;;;8.13;5.43;;;;;;;25.56;95.84;99970.69;5021191;28;20363;-58
2023/08/22 04:24:09;;;;;;;8.87;5.10;;;;;;;25.77;95.32;99965.31;5010689;28;20048;-57
2023/08/22 04:26:40;;;;;;;9.50;5.10;;;;;;;25.99;94.87;99966.22;5021212;28;20060;-58
2023/08/22 04:29:11;;;;;;;10.23;4.90;;;;;;;26.19;94.60;99967.19;5011100;28;20498;-57
2023/08/22 04:31:42;;;;;;;11.33;5.67;;;;;;;26.32;93.33;99945.53;5021998;28;20049;-57
2023/08/22 04:34:13;;;;;;;10.20;5.30;;;;;;;26.38;91.93;99942.31;5011150;28;20098;-57
2023/08/22 04:36:43;;;;;;;7.40;5.10;;;;;;;26.41;92.04;99945.59;5021147;28;20053;-58
2023/08/22 04:39:15;;;;;;;10.37;5.23;;;;;;;26.50;91.57;99943.91;5011155;28;21054;-57
2023/08/22 04:41:46;;;;;;;7.40;5.13;;;;;;;26.65;90.10;99941.75;5021637;28;20063;-57
2023/08/22 04:44:17;;;;;;;8.03;4.80;;;;;;;26.65;89.81;99942.56;5008279;28;20053;-57
2023/08/22 04:46:48;;;;;;;10.87;7.63;;;;;;;26.56;89.90;99947.91;5000623;28;20552;-56
2023/08/22 04:49:18;;;;;;;15.03;10.40;;;;;;;26.32;89.97;99932.16;4991582;28;20472;-58
2023/08/22 04:51:49;;;;;;;12.33;10.27;;;;;;;26.18;91.05;99950.25;5004552;28;20064;-58
2023/08/22 04:54:21;;;;;;;9.23;5.73;;;;;;;25.73;91.71;99921.06;5003309;28;20460;-58
2023/08/22 04:56:51;;;;;;;10.30;6.43;;;;;;;25.81;93.05;99945.38;5024189;28;20063;-58
2023/08/22 04:59:22;;;;;;;12.43;6.10;;;;;;;25.69;94.30;99957.09;5014294;28;20052;-58
2023/08/22 05:01:52;;;;;;;12.50;5.53;;;;;;;25.53;94.94;99946.00;5024568;28;20362;-57
2023/08/22 05:04:23;;;;;;;9.97;6.27;;;;;;;25.39;95.80;99953.34;5006576;28;20053;-57
2023/08/22 05:06:54;;;;;;;14.37;7.40;;;;;;;25.11;96.90;99929.81;5022412;28;20461;-58
2023/08/22 05:09:26;;;;;;;16.97;10.07;;;;;;;25.30;97.79;99954.09;5024887;28;20137;-58
2023/08/22 05:11:56;;;;;;;12.57;8.07;;;;;;;25.35;97.88;99957.25;5015709;28;20069;-57
2023/08/22 05:14:27;;;;;;;11.80;8.07;;;;;;;25.56;98.10;99948.41;5024914;28;20044;-56
2023/08/22 05:16:58;;;;;;;13.70;7.67;;;;;;;25.70;97.37;99928.53;5012975;28;20111;-58
2023/08/22 05:19:29;;;;;;;13.93;7.00;;;;;;;25.93;96.18;99929.25;5023218;28;20047;-57
2023/08/22 05:22:00;;;;;;;11.80;9.80;;;;;;;26.08;95.76;99932.44;5003262;28;20123;-56
2023/08/22 05:24:32;;;;;;;12.00;7.03;;;;;;;26.16;95.01;99930.81;5021696;28;20363;-58
2023/08/22 05:27:02;;;;;;;9.90;5.90;;;;;;;26.29;93.54;99919.03;5037088;28;20143;-58
2023/08/22 05:29:33;;;;;;;8.37;5.40;;;;;;;26.33;92.61;99936.50;5036867;28;20057;-59
2023/08/22 05:32:03;;;;;;;12.67;5.87;;;;;;;26.40;92.53;99932.31;5036658;28;20523;-58
2023/08/22 05:34:34;;;;;;;10.57;5.90;;;;;;;26.41;92.90;99925.97;5037280;28;20047;-58
2023/08/22 05:37:04;;;;;;;18.40;6.00;;;;;;;26.42;92.83;99930.34;4994472;28;20507;-58
2023/08/22 05:39:37;;;;;;;11.93;5.67;;;;;;;26.34;92.54;99932.88;5003932;28;20044;-58
2023/08/22 05:42:08;;;;;;;13.87;6.43;;;;;;;26.22;92.43;99930.25;4994792;28;20060;-57
2023/08/22 05:44:39;;;;;;;10.83;5.67;;;;;;;25.98;93.48;99933.22;5004907;28;20178;-57
2023/08/22 05:47:10;;;;;;;15.67;6.13;;;;;;;25.85;94.78;99921.00;4995409;28;20053;-57
2023/08/22 05:49:43;;;;;;;10.27;5.83;;;;;;;25.78;95.12;99926.88;5005407;28;20136;-57
2023/08/22 05:52:13;;;;;;;10.33;5.80;;;;;;;25.72;95.90;99914.03;4994988;28;20850;-58
2023/08/22 05:54:45;;;;;;;14.17;9.40;;;;;;;25.66;96.12;99916.38;5004695;28;20054;-57
2023/08/22 05:57:16;;;;;;;25.97;16.93;;;;;;;25.58;96.92;99917.03;4995078;28;20156;-57
2023/08/22 05:59:46;;;;;;;14.17;10.30;;;;;;;25.53;97.52;99921.91;5003874;28;20524;-58
2023/08/22 06:02:17;;;;;;;12.43;8.23;;;;;;;25.56;98.21;99916.28;4994947;28;20140;-58
2023/08/22 06:04:49;;;;;;;10.80;7.23;;;;;;;25.49;98.52;99899.09;5004929;28;20088;-59
2023/08/22 06:07:19;;;;;;;12.83;7.43;;;;;;;25.61;98.16;99908.75;5014456;28;20191;-58
2023/08/22 06:09:51;;;;;;;15.57;7.50;;;;;;;25.73;98.00;99902.34;5024161;28;20134;-58
2023/08/22 06:12:22;;;;;;;21.60;7.63;;;;;;;25.78;97.54;99909.97;5002103;28;20393;-58
2023/08/22 06:14:52;;;;;;;14.40;7.07;;;;;;;25.92;97.26;99895.44;5020422;28;20203;-59
2023/08/22 06:17:23;;;;;;;13.23;7.77;;;;;;;25.79;96.76;99885.75;5013234;28;20122;-57
2023/08/22 06:19:54;;;;;;;15.30;7.73;;;;;;;25.76;97.14;99907.44;5024630;28;20057;-59
2023/08/22 06:22:24;;;;;;;14.20;8.83;;;;;;;25.57;97.99;99910.81;5013227;28;20057;-59
2023/08/22 06:24:56;;;;;;;12.23;8.07;;;;;;;25.48;99.21;99908.06;5017155;28;20063;-56
2023/08/22 06:27:27;;;;;;;15.17;8.40;;;;;;;25.35;99.26;99906.44;5023393;28;20049;-59
2023/08/22 06:29:58;;;;;;;15.87;8.07;;;;;;;25.24;99.78;99895.81;5015279;28;20412;-58
2023/08/22 06:32:29;;;;;;;14.53;8.47;;;;;;;25.16;100.00;99900.88;5019273;28;20056;-59
2023/08/22 06:35:01;;;;;;;21.37;8.17;;;;;;;25.04;100.00;99893.91;5002621;28;20044;-57
2023/08/22 06:37:32;;;;;;;14.83;8.17;;;;;;;25.00;100.00;99903.16;5023859;28;20119;-58
2023/08/22 06:40:05;;;;;;;16.67;7.90;;;;;;;24.89;100.00;99902.22;5013566;28;20045;-58
2023/08/22 06:42:36;;;;;;;14.57;8.03;;;;;;;24.80;100.00;99897.59;5022696;28;20123;-57
2023/08/22 06:45:07;;;;;;;16.07;8.10;;;;;;;24.76;100.00;99901.50;5013936;28;20478;-58
2023/08/22 06:47:38;;;;;;;18.13;7.93;;;;;;;24.70;100.00;99896.66;5031283;28;20047;-58
2023/08/22 06:50:10;;;;;;;15.90;8.47;;;;;;;24.66;100.00;99900.53;5035872;28;20064;-58
2023/08/22 06:52:40;;;;;;;13.40;8.03;;;;;;;24.63;100.00;99906.13;5055515;28;20051;-59
2023/08/22 06:55:13;;;;;;;12.67;7.27;;;;;;;24.66;100.00;99901.41;5029011;28;20094;-58
2023/08/22 06:57:43;;;;;;;13.50;7.97;;;;;;;24.67;100.00;99904.94;5022678;28;20049;-58
2023/08/22 07:00:16;;;;;;;13.73;7.50;;;;;;;24.64;100.00;99907.84;5012742;28;20065;-58
2023/08/22 07:02:48;;;;;;;10.53;6.60;;;;;;;24.49;100.00;99881.41;5022506;28;20036;-57
2023/08/22 07:05:18;;;;;;;11.73;7.30;;;;;;;24.53;100.00;99906.03;5013128;28;20072;-58
2023/08/22 07:07:49;;;;;;;16.83;7.40;;;;;;;24.51;100.00;99914.19;5023813;28;20045;-58
2023/08/22 07:10:21;;;;;;;11.30;7.00;;;;;;;24.20;100.00;99862.34;5012655;28;20040;-58
2023/08/22 07:12:52;;;;;;;15.20;7.47;;;;;;;24.31;100.00;99901.50;5021973;28;20111;-58
2023/08/22 07:15:22;;;;;;;10.27;6.23;;;;;;;24.26;100.00;99904.56;5012502;28;20503;-58
2023/08/22 07:17:53;;;;;;;13.87;7.40;;;;;;;23.95;100.00;99863.44;5022765;28;20252;-58
2023/08/22 07:20:23;;;;;;;13.60;6.53;;;;;;;24.11;100.00;99898.63;4992775;28;20068;-58
2023/08/22 07:22:54;;;;;;;15.67;7.07;;;;;;;24.06;100.00;99890.13;5001804;28;20049;-58
2023/08/22 07:25:26;;;;;;;11.30;7.07;;;;;;;24.09;100.00;99887.22;5022491;28;20071;-56
2023/08/22 07:27:57;;;;;;;13.97;7.23;;;;;;;24.09;100.00;99879.22;5012591;28;20045;-58
2023/08/22 07:30:28;;;;;;;13.13;7.80;;;;;;;24.09;100.00;99879.22;5022098;28;20114;-58
2023/08/22 07:32:58;;;;;;;13.43;8.03;;;;;;;23.94;100.00;99859.06;5011511;28;20084;-57
2023/08/22 07:35:29;;;;;;;14.13;7.43;;;;;;;23.98;100.00;99873.84;5021860;28;20052;-59
2023/08/22 07:38:00;;;;;;;14.97;8.27;;;;;;;23.93;100.00;99881.38;5011643;28;20041;-59
2023/08/22 07:40:33;;;;;;;14.03;7.83;;;;;;;23.65;100.00;99834.63;5007533;28;20045;-57
2023/08/22 07:43:03;;;;;;;14.73;8.17;;;;;;;23.89;100.00;99879.94;5011357;28;20460;-57
2023/08/22 07:45:34;;;;;;;13.20;7.77;;;;;;;23.87;100.00;99876.53;5021304;28;20053;-58
2023/08/22 07:48:05;;;;;;;15.70;7.93;;;;;;;23.84;100.00;99877.63;5012329;28;20135;-57
2023/08/22 07:50:36;;;;;;;14.73;8.20;;;;;;;23.82;100.00;99873.38;5022342;28;20048;-57
2023/08/22 07:53:08;;;;;;;15.53;9.30;;;;;;;23.73;100.00;99860.75;5012484;28;20059;-57
2023/08/22 07:55:40;;;;;;;13.47;8.07;;;;;;;23.80;100.00;99869.97;5021890;28;20087;-58
2023/08/22 07:58:10;;;;;;;12.17;7.97;;;;;;;23.73;100.00;99868.75;5011428;28;20505;-58
2023/08/22 08:00:41;;;;;;;12.13;7.40;;;;;;;23.69;100.00;99868.94;5031717;28;20436;-59
2023/08/22 08:03:12;;;;;;;21.33;7.90;;;;;;;23.65;100.00;99872.81;5017991;28;20110;-58
2023/08/22 08:05:42;;;;;;;17.00;8.80;;;;;;;23.62;100.00;99866.88;5019194;28;20088;-58
2023/08/22 08:08:13;;;;;;;11.93;8.37;;;;;;;23.60;100.00;99864.31;5012255;28;20051;-58
2023/08/22 08:10:45;;;;;;;11.57;7.70;;;;;;;23.58;100.00;99871.59;5022354;28;20049;-58
2023/08/22 08:13:16;;;;;;;11.90;8.13;;;;;;;23.21;100.00;99807.78;5009059;28;20056;-59
2023/08/22 08:15:46;;;;;;;14.30;7.80;;;;;;;23.49;100.00;99872.31;5001814;28;20305;-58
2023/08/22 08:18:20;;;;;;;18.63;7.60;;;;;;;23.52;100.00;99880.06;5010829;28;21236;-57
2023/08/22 08:20:51;;;;;;;14.60;8.20;;;;;;;23.55;100.00;99866.50;5020867;28;20063;-57
2023/08/22 08:23:21;;;;;;;15.57;7.93;;;;;;;23.47;100.00;99852.91;4991305;28;20080;-56
2023/08/22 08:25:53;;;;;;;14.73;7.50;;;;;;;23.57;100.00;99863.72;5001705;28;20060;-57
2023/08/22 08:28:25;;;;;;;14.73;7.63;;;;;;;23.55;100.00;99861.16;5011032;28;20423;-58
2023/08/22 08:30:56;;;;;;;16.70;8.20;;;;;;;23.53;100.00;99872.91;4995618;28;20050;-57
2023/08/22 08:33:27;;;;;;;17.80;9.03;;;;;;;23.51;100.00;99867.69;5021237;28;20059;-58
2023/08/22 08:35:57;;;;;;;15.10;8.20;;;;;;;23.51;100.00;99875.69;5012312;28;20048;-57
2023/08/22 08:38:28;;;;;;;16.63;8.10;;;;;;;23.53;100.00;99857.75;5021762;28;20072;-58
2023/08/22 08:41:04;;;;;;;15.47;9.03;;;;;;;23.51;100.00;99865.00;5011840;28;20052;-57
2023/08/22 08:43:36;;;;;;;13.33;8.40;;;;;;;23.46;100.00;99856.53;5022698;28;20087;-58
2023/08/22 08:46:10;;;;;;;12.27;8.10;;;;;;;23.47;100.00;99866.25;5011458;28;20130;-58
2023/08/22 08:48:43;;;;;;;13.37;8.83;;;;;;;23.43;100.00;99862.09;5021280;28;20057;-57
2023/08/22 08:51:16;;;;;;;12.53;9.10;;;;;;;23.41;100.00;99859.56;5010829;28;20464;-58
2023/08/22 08:53:48;;;;;;;13.93;8.43;;;;;;;23.37;100.00;99857.25;5014762;28;20038;-57
2023/08/22 08:56:21;;;;;;;17.63;8.83;;;;;;;23.42;100.00;99860.41;4999156;28;20050;-58
2023/08/22 08:58:53;;;;;;;15.30;8.50;;;;;;;23.39;100.00;99857.97;5001129;28;20064;-58
2023/08/22 09:01:27;;;;;;;12.30;8.63;;;;;;;23.38;100.00;99858.94;5010494;28;20133;-57
2023/08/22 09:04:03;;;;;;;14.00;9.03;;;;;;;23.38;100.00;99859.78;4993737;28;20095;-58
2023/08/22 09:06:36;;;;;;;14.80;8.20;;;;;;;23.38;100.00;99858.94;5001543;28;20053;-59
2023/08/22 09:09:12;;;;;;;14.73;8.90;;;;;;;23.38;100.00;99858.94;4991737;28;20049;-58
2023/08/22 09:11:46;;;;;;;18.53;9.43;;;;;;;23.33;100.00;99866.44;5008355;28;20078;-57
2023/08/22 09:14:34;;;;;;;11.13;7.83;;;;;;;23.27;100.00;99866.91;5008024;28;20460;-58
2023/08/22 09:17:06;;;;;;;11.20;7.93;;;;;;;23.25;100.00;99864.34;5010703;28;20064;-58
2023/08/22 09:19:39;;;;;;;15.80;8.43;;;;;;;23.23;100.00;99869.78;5020264;28;20053;-57
2023/08/22 09:22:56;;;;;;;;;;;;;;;;;;;;;
2023/08/22 09:25:40;;;;;;;12.93;8.73;;;;;;;22.99;100.00;99842.34;4978559;28;20061;-59
2023/08/22 09:28:13;;;;;;;14.40;8.65;;;;;;;23.16;100.00;99884.53;5000504;28;20103;-59
2023/08/22 09:30:49;;;;;;;13.03;8.53;;;;;;;23.14;100.00;99878.50;5002806;28;20128;-58
2023/08/22 09:33:21;;;;;;;16.47;8.50;;;;;;;23.13;100.00;99882.09;5009630;28;20041;-59
2023/08/22 09:35:58;;;;;;;21.20;15.00;;;;;;;23.07;100.00;99866.59;5014626;28;20055;-58
2023/08/22 09:38:30;;;;;;;15.33;9.40;;;;;;;23.13;100.00;99881.25;4994511;28;20053;-58
2023/08/22 09:41:02;;;;;;;16.80;8.47;;;;;;;23.11;100.00;99884.03;4995787;28;20367;-58
2023/08/22 09:43:39;;;;;;;12.63;8.37;;;;;;;23.13;100.00;99879.44;5024309;28;20150;-57
2023/08/22 09:46:11;;;;;;;11.30;7.60;;;;;;;23.15;100.00;99890.84;5014078;28;20363;-58
2023/08/22 09:48:44;;;;;;;13.97;8.27;;;;;;;22.75;100.00;99819.16;5024019;28;20357;-58
2023/08/22 09:51:19;;;;;;;14.23;8.33;;;;;;;23.18;100.00;99884.44;5014209;28;20049;-57
2023/08/22 09:53:53;;;;;;;13.83;7.57;;;;;;;23.18;100.00;99887.94;5016760;28;20136;-57
2023/08/22 09:56:25;;;;;;;13.03;8.00;;;;;;;23.18;100.00;99889.75;4994281;28;20080;-58
2023/08/22 09:58:59;;;;;;;12.83;7.27;;;;;;;23.20;100.00;99891.34;4994308;28;20053;-57
2023/08/22 10:01:33;;;;;;;11.83;7.93;;;;;;;23.24;100.00;99900.81;5023811;28;20049;-59
2023/08/22 10:04:05;;;;;;;12.30;8.40;;;;;;;23.25;100.00;99891.84;5013643;28;20585;-58
2023/08/22 10:06:39;;;;;;;12.03;8.23;;;;;;;23.28;100.00;99893.44;5023421;28;20387;-57
2023/08/22 10:09:13;;;;;;;11.17;6.97;;;;;;;23.30;100.00;99898.66;5014070;28;20040;-59
2023/08/22 10:11:49;;;;;;;12.37;8.17;;;;;;;23.31;100.00;99895.00;5023535;28;20073;-58
2023/08/22 10:14:28;;;;;;;9.67;7.47;;;;;;;23.22;100.00;99886.75;4993463;28;20076;-58
2023/08/22 10:16:59;;;;;;;;;;;;;;;23.37;100.00;99905.22;5003761;28;20122;-58
2023/08/22 10:19:33;;;;;;;12.73;8.10;;;;;;;23.40;100.00;99905.00;5024160;28;19936;-57
2023/08/22 10:22:09;;;;;;;12.77;7.87;;;;;;;23.33;100.00;99893.94;5013673;28;20131;-58
2023/08/22 10:24:41;;;;;;;11.97;8.10;;;;;;;23.32;100.00;99880.75;5024110;28;20033;-58
2023/08/22 10:27:14;;;;;;;11.57;8.13;;;;;;;23.47;100.00;99906.22;5013822;28;20075;-58
2023/08/22 10:29:48;;;;;;;12.37;7.70;;;;;;;23.46;100.00;99904.50;5023225;28;20044;-58
2023/08/22 10:32:25;;;;;;;14.33;7.57;;;;;;;23.45;100.00;99903.66;5013411;28;20303;-56
2023/08/22 10:35:26;;;;;;;11.20;8.07;;;;;;;23.50;100.00;99911.31;5014182;28;20064;-58
2023/08/22 10:37:58;;;;;;;10.27;7.73;;;;;;;23.52;100.00;99914.72;5013522;28;20372;-58
2023/08/22 10:40:32;;;;;;;8.50;6.83;;;;;;;23.54;100.00;99911.94;5004850;28;20041;-58
2023/08/22 10:43:13;;;;;;;14.93;7.67;;;;;;;23.55;100.00;99901.16;4993640;28;20057;-56
2023/08/22 10:45:52;;;;;;;12.30;7.30;;;;;;;23.57;100.00;99907.22;5002913;28;20065;-57
2023/08/22 10:48:25;;;;;;;10.93;8.33;;;;;;;23.59;100.00;99918.63;4992453;28;20128;-57
2023/08/22 10:51:07;;;;;;;10.00;7.10;;;;;;;23.58;100.00;99919.59;5009340;28;20049;-57
2023/08/22 10:53:46;;;;;;;12.90;8.53;;;;;;;23.63;100.00;99930.75;5022517;28;20061;-58
2023/08/22 10:56:25;;;;;;;9.47;7.27;;;;;;;23.63;100.00;99928.09;5011920;28;20052;-58
2023/08/22 10:59:01;;;;;;;9.68;7.32;;;;;;;23.60;100.00;99923.00;5013241;28;20067;-57
2023/08/22 11:01:34;;;;;;;11.87;7.30;;;;;;;23.65;100.00;99926.16;5017154;28;20139;-58
2023/08/22 11:04:12;;;;;;;11.67;7.37;;;;;;;23.64;100.00;99924.47;4992711;28;20701;-57
2023/08/22 11:06:45;;;;;;;10.38;7.50;;;;;;;23.65;100.00;99925.31;5002233;28;20255;-59
2023/08/22 11:09:19;;;;;;;10.43;7.67;;;;;;;23.55;100.00;99914.50;4993983;28;20049;-57
2023/08/22 11:11:51;;;;;;;12.07;7.73;;;;;;;23.66;100.00;99927.00;5002651;28;20049;-56
2023/08/22 11:14:23;;;;;;;11.47;7.70;;;;;;;23.67;100.00;99929.56;5012495;28;20052;-56
2023/08/22 11:16:56;;;;;;;10.03;7.30;;;;;;;23.67;100.00;99929.56;5022422;28;20072;-58
2023/08/22 11:19:28;;;;;;;9.97;7.00;;;;;;;23.68;100.00;99925.91;4992141;28;20106;-57
2023/08/22 11:22:00;;;;;;;12.23;7.70;;;;;;;23.72;100.00;99923.03;4992130;28;20353;-57
2023/08/22 11:24:32;;;;;;;12.03;7.23;;;;;;;23.72;100.00;99920.38;5002776;28;20072;-57
2023/08/22 11:27:05;;;;;;;9.50;7.47;;;;;;;23.44;100.00;99879.81;4991840;28;20060;-57
2023/08/22 11:29:42;;;;;;;11.57;7.33;;;;;;;23.70;100.00;99917.81;5016337;28;20064;-57
2023/08/22 11:32:26;;;;;;;9.87;7.50;;;;;;;23.72;100.00;99920.38;5012064;28;20103;-57
2023/08/22 11:34:59;;;;;;;11.20;7.30;;;;;;;23.68;100.00;99909.06;5012914;28;20049;-58
2023/08/22 11:37:33;;;;;;;11.67;7.40;;;;;;;23.75;100.00;99914.81;5026265;28;20048;-56
2023/08/22 11:40:09;;;;;;;10.73;7.43;;;;;;;23.79;100.00;99916.28;5015940;28;20126;-56
2023/08/22 11:42:42;;;;;;;10.07;7.57;;;;;;;23.65;100.00;99883.47;5025723;28;20494;-54
2023/08/22 11:45:17;;;;;;;8.87;7.17;;;;;;;23.77;100.00;99897.72;5015951;28;25239;-55
2023/08/22 11:47:53;;;;;;;12.93;7.33;;;;;;;23.82;100.00;99889.38;5010274;28;20065;-55